createdAt,value
2017-10-23T18:36:15.451Z,79.95
2017-10-23T18:38:42.852Z,79.79
2017-10-23T18:41:10.240Z,80.77
2017-10-23T18:43:37.639Z,80.63
2017-10-23T18:46:05.032Z,81.18
2017-10-23T18:48:32.453Z,81.95
2017-10-23T18:50:59.848Z,82.11
2017-10-23T18:53:27.347Z,82.48
2017-10-23T18:55:54.750Z,82.30
2017-10-23T18:58:22.150Z,82.11
2017-10-23T19:00:49.573Z,82.22
2017-10-23T19:03:16.959Z,82.10
2017-10-23T19:05:44.381Z,82.87
2017-10-23T19:08:11.830Z,83.75
2017-10-23T19:10:39.246Z,84.27
2017-10-23T19:13:06.742Z,84.24
2017-10-23T19:15:34.147Z,84.52
2017-10-23T19:18:01.538Z,84.67
2017-10-23T19:20:28.947Z,85.13
2017-10-23T19:22:56.774Z,85.01
2017-10-23T19:25:24.175Z,84.28
2017-10-23T19:27:51.586Z,83.71
2017-10-23T19:30:18.992Z,83.67
2017-10-23T19:32:46.394Z,84.21
2017-10-23T19:35:13.862Z,83.49
2017-10-23T19:37:41.324Z,83.27
2017-10-23T19:40:08.928Z,82.58
2017-10-23T19:42:36.334Z,82.34
2017-10-23T19:45:03.910Z,81.83
2017-10-23T19:47:31.447Z,81.97
2017-10-23T19:49:58.907Z,81.80
2017-10-23T19:52:26.366Z,81.57
2017-10-23T19:54:53.774Z,81.21
2017-10-23T19:57:21.292Z,81.07
2017-10-23T19:59:48.790Z,80.96
2017-10-23T20:02:16.204Z,80.65
2017-10-23T20:04:43.591Z,80.09
2017-10-23T20:07:10.995Z,80.04
2017-10-23T20:09:38.406Z,79.87
2017-10-23T20:12:05.948Z,80.15
2017-10-23T20:14:33.490Z,79.77
2017-10-23T20:17:00.926Z,79.81
2017-10-23T20:19:28.408Z,80.47
2017-10-23T20:21:55.803Z,80.24
2017-10-23T20:24:23.238Z,80.10
2017-10-23T20:26:50.690Z,79.83
2017-10-23T20:29:18.082Z,79.98
2017-10-23T20:31:45.483Z,79.96
2017-10-23T20:34:12.981Z,80.47
2017-10-23T20:36:40.513Z,80.52
2017-10-23T20:39:08.052Z,79.98
2017-10-23T20:41:35.460Z,79.93
2017-10-23T20:44:02.999Z,79.80
2017-10-23T20:46:30.511Z,79.28
2017-10-23T20:48:57.896Z,79.54
2017-10-23T20:51:25.283Z,79.00
2017-10-23T20:53:52.797Z,78.77
2017-10-23T20:56:20.275Z,78.51
2017-10-23T20:58:47.822Z,78.76
2017-10-23T21:01:15.271Z,78.61
2017-10-23T21:03:42.739Z,78.51
2017-10-23T21:06:10.133Z,78.29
2017-10-23T21:08:37.535Z,78.10
2017-10-23T21:11:05.006Z,78.17
2017-10-23T21:13:32.399Z,77.84
2017-10-23T21:15:59.798Z,77.71
2017-10-23T21:18:27.276Z,77.54
2017-10-23T21:20:54.670Z,77.49
2017-10-23T21:23:22.087Z,77.65
2017-10-23T21:25:49.540Z,77.42
2017-10-23T21:28:16.939Z,77.25
2017-10-23T21:30:44.348Z,77.11
2017-10-23T21:33:11.759Z,77.02
2017-10-23T21:35:39.268Z,77.25
2017-10-23T21:38:06.719Z,77.62
2017-10-23T21:40:34.111Z,78.03
2017-10-23T21:43:01.593Z,77.92
2017-10-23T21:45:28.969Z,78.44
2017-10-23T21:48:11.990Z,78.34
2017-10-23T21:50:39.375Z,79.16
2017-10-23T21:53:06.867Z,79.01
2017-10-23T21:55:34.323Z,79.46
2017-10-23T21:58:01.795Z,80.02
2017-10-23T22:00:29.174Z,80.37
2017-10-23T22:02:56.564Z,80.24
2017-10-23T22:05:24.055Z,80.52
2017-10-23T22:07:51.439Z,80.85
2017-10-23T22:10:18.831Z,82.10
2017-10-23T22:12:46.231Z,81.76
2017-10-23T22:15:13.625Z,81.70
2017-10-23T22:17:41.015Z,82.49
2017-10-23T22:20:08.480Z,82.50
2017-10-23T22:22:35.935Z,82.90
2017-10-23T22:25:03.330Z,82.91
2017-10-23T22:27:30.818Z,83.42
2017-10-23T22:29:58.278Z,82.68
2017-10-23T22:32:25.671Z,82.26
2017-10-23T22:34:53.068Z,81.88
2017-10-23T22:37:20.463Z,82.78
2017-10-23T22:39:47.890Z,83.60
2017-10-23T22:42:15.282Z,83.21
2017-10-23T22:44:42.691Z,82.73
2017-10-23T22:47:10.084Z,82.54
2017-10-23T22:49:37.499Z,82.47
2017-10-23T22:52:04.894Z,83.27
2017-10-23T22:54:32.338Z,82.69
2017-10-23T22:56:59.734Z,82.96
2017-10-23T22:59:27.139Z,84.07
2017-10-23T23:01:54.548Z,83.90
2017-10-23T23:04:21.954Z,85.06
2017-10-23T23:06:49.354Z,84.67
2017-10-23T23:09:16.751Z,85.62
2017-10-23T23:11:44.159Z,85.61
2017-10-23T23:14:11.552Z,86.35
2017-10-23T23:16:39.008Z,86.30
2017-10-23T23:19:06.488Z,86.78
2017-10-23T23:21:33.932Z,86.53
2017-10-23T23:24:01.341Z,86.51
2017-10-23T23:26:28.738Z,86.26
2017-10-23T23:28:56.214Z,87.03
2017-10-23T23:31:23.629Z,88.45
2017-10-23T23:33:51.031Z,88.29
2017-10-23T23:36:18.478Z,88.06
2017-10-23T23:38:45.878Z,87.24
2017-10-23T23:41:13.270Z,87.48
2017-10-23T23:43:40.667Z,87.89
2017-10-23T23:46:08.070Z,87.53
2017-10-23T23:48:35.554Z,88.16
2017-10-23T23:51:03.031Z,88.35
2017-10-23T23:53:30.474Z,88.69
2017-10-23T23:55:57.931Z,87.88
2017-10-23T23:58:25.334Z,87.99
